createdAt,value
2019-01-21T00:02:18.887Z,3.36
2019-01-21T00:04:46.938Z,3.35
2019-01-21T00:07:14.924Z,3.34
2019-01-21T00:09:42.941Z,3.34
2019-01-21T00:12:10.939Z,3.33
2019-01-21T00:14:38.935Z,3.33
2019-01-21T00:17:06.949Z,3.33
2019-01-21T00:19:35.250Z,3.31
2019-01-21T00:22:03.459Z,3.32
2019-01-21T00:24:31.440Z,3.33
2019-01-21T00:26:59.445Z,3.34
2019-01-21T00:29:27.494Z,3.33
2019-01-21T00:31:56.256Z,3.34
2019-01-21T00:34:26.578Z,3.34
2019-01-21T00:36:54.591Z,3.33
2019-01-21T00:39:22.634Z,3.33
2019-01-21T00:41:50.627Z,3.32
2019-01-21T00:44:18.665Z,3.32
2019-01-21T00:46:46.701Z,3.33
2019-01-21T00:49:15.107Z,3.31
2019-01-21T00:51:43.156Z,3.31
2019-01-21T00:54:11.302Z,3.29
2019-01-21T00:56:39.323Z,3.29
2019-01-21T00:59:07.456Z,3.29
2019-01-21T01:01:37.297Z,3.27
2019-01-21T01:04:05.294Z,3.27
2019-01-21T01:06:33.335Z,3.25
2019-01-21T01:09:01.353Z,3.25
2019-01-21T01:11:30.767Z,3.24
2019-01-21T01:13:58.795Z,3.24
2019-01-21T01:16:27.968Z,3.23
2019-01-21T01:18:56.469Z,3.23
2019-01-21T01:21:24.509Z,3.23
2019-01-21T01:23:52.503Z,3.21
2019-01-21T01:26:20.657Z,3.20
2019-01-21T01:28:50.836Z,3.18
2019-01-21T01:31:18.936Z,3.17
2019-01-21T01:33:48.030Z,3.15
2019-01-21T01:36:16.062Z,3.13
2019-01-21T01:38:44.112Z,3.11
2019-01-21T01:41:12.111Z,3.09
2019-01-21T01:43:40.209Z,3.09
2019-01-21T01:46:08.238Z,3.07
2019-01-21T01:48:36.257Z,3.06
2019-01-21T01:51:04.281Z,3.06
2019-01-21T01:53:33.175Z,3.01
2019-01-21T01:56:01.206Z,3.03
2019-01-21T01:58:29.331Z,3.00
2019-01-21T02:00:57.369Z,2.99
2019-01-21T02:03:25.374Z,2.97
2019-01-21T02:05:53.548Z,2.98
2019-01-21T02:08:21.703Z,2.98
2019-01-21T02:10:49.717Z,2.97
2019-01-21T02:13:17.819Z,2.95
2019-01-21T02:15:45.831Z,2.95
2019-01-21T02:18:13.915Z,2.93
2019-01-21T02:20:44.610Z,2.94
2019-01-21T02:23:16.342Z,2.91
2019-01-21T02:25:52.616Z,2.91
2019-01-21T02:29:17.000Z,2.88
2019-01-21T02:32:20.931Z,2.87
2019-01-21T02:36:08.430Z,2.83
2019-01-21T02:39:30.267Z,2.81
2019-01-21T02:42:14.208Z,2.76
2019-01-21T02:45:37.914Z,2.73
2019-01-21T02:49:10.564Z,2.70
2019-01-21T02:52:37.613Z,2.67
2019-01-21T02:56:05.379Z,2.64
2019-01-21T02:59:43.904Z,2.62
2019-01-21T03:02:57.486Z,2.59
2019-01-21T03:06:13.135Z,2.55
2019-01-21T03:09:44.196Z,2.51
2019-01-21T03:12:57.594Z,2.45
2019-01-21T03:16:24.830Z,2.44
2019-01-21T03:20:00.805Z,2.41
2019-01-21T03:23:17.257Z,2.36
2019-01-21T03:26:26.089Z,2.32
2019-01-21T03:30:07.391Z,2.28
2019-01-21T03:33:36.074Z,2.28
2019-01-21T03:36:18.617Z,2.28
2019-01-21T03:39:48.843Z,2.27
2019-01-21T03:42:51.733Z,2.27
2019-01-21T03:46:22.481Z,2.29
2019-01-21T03:49:07.789Z,2.30
2019-01-21T03:52:20.330Z,2.31
2019-01-21T03:54:58.065Z,2.32
2019-01-21T03:58:32.908Z,2.31
2019-01-21T04:01:41.747Z,2.30
2019-01-21T04:05:37.640Z,2.30
2019-01-21T04:08:55.972Z,2.29
2019-01-21T04:12:01.940Z,2.27
2019-01-21T04:15:07.275Z,2.24
2019-01-21T04:18:35.003Z,2.22
2019-01-21T04:22:19.676Z,2.17
2019-01-21T04:25:21.840Z,2.16
2019-01-21T04:28:41.275Z,2.12
2019-01-21T04:32:07.366Z,2.11
2019-01-21T04:35:46.094Z,2.07
2019-01-21T04:39:42.669Z,2.02
2019-01-21T04:42:59.861Z,2.01
2019-01-21T04:46:32.107Z,1.96
2019-01-21T04:49:37.060Z,1.90
2019-01-21T04:52:37.783Z,1.87
2019-01-21T04:55:48.473Z,1.84
2019-01-21T04:59:20.097Z,1.79
2019-01-21T05:02:32.500Z,1.75
2019-01-21T05:06:09.070Z,1.71
2019-01-21T05:09:06.813Z,1.68
2019-01-21T05:12:51.071Z,1.63
2019-01-21T05:16:05.940Z,1.61
2019-01-21T05:19:33.293Z,1.61
2019-01-21T05:22:34.947Z,1.60
2019-01-21T05:26:10.882Z,1.60
2019-01-21T05:29:24.124Z,1.60
2019-01-21T05:33:17.824Z,1.58
2019-01-21T05:36:35.119Z,1.56
2019-01-21T05:39:54.491Z,1.53
2019-01-21T05:43:06.910Z,1.51
2019-01-21T05:46:02.377Z,1.52
2019-01-21T05:49:33.281Z,1.52
2019-01-21T05:53:00.620Z,1.52
2019-01-21T05:56:10.218Z,1.52
2019-01-21T05:59:38.819Z,1.50
2019-01-21T06:02:52.420Z,1.48
2019-01-21T06:06:33.540Z,1.46
2019-01-21T06:09:40.805Z,1.47
2019-01-21T06:13:07.666Z,1.47
2019-01-21T06:16:37.872Z,1.45
2019-01-21T06:20:06.929Z,1.43
2019-01-21T06:24:00.689Z,1.38
2019-01-21T06:27:20.649Z,1.35
2019-01-21T06:30:47.330Z,1.35
2019-01-21T06:34:53.105Z,1.34
2019-01-21T06:38:02.110Z,1.33
2019-01-21T06:41:28.491Z,1.30
2019-01-21T06:45:06.561Z,1.27
2019-01-21T06:48:48.770Z,1.26
2019-01-21T06:52:05.463Z,1.27
2019-01-21T06:55:36.143Z,1.26
2019-01-21T06:59:01.116Z,1.22
2019-01-21T07:02:00.061Z,1.21
2019-01-21T07:05:46.187Z,1.21
2019-01-21T07:09:07.608Z,1.21
2019-01-21T07:12:53.733Z,1.18
2019-01-21T07:15:56.533Z,1.18
2019-01-21T07:19:18.521Z,1.17
2019-01-21T07:22:30.560Z,1.18
2019-01-21T07:25:51.598Z,1.19
2019-01-21T07:29:18.498Z,1.20
2019-01-21T07:32:39.356Z,1.20
2019-01-21T07:36:17.865Z,1.18
2019-01-21T07:39:48.012Z,1.17
2019-01-21T07:43:06.428Z,1.14
2019-01-21T07:46:30.002Z,1.11
2019-01-21T07:49:29.528Z,1.10
2019-01-21T07:53:21.564Z,1.07
2019-01-21T07:57:05.713Z,1.06
2019-01-21T08:00:13.647Z,1.06
2019-01-21T08:03:52.914Z,1.05
2019-01-21T08:07:18.635Z,1.06
2019-01-21T08:10:34.637Z,1.05
2019-01-21T08:13:22.891Z,1.04
2019-01-21T08:16:58.460Z,1.01
2019-01-21T08:20:02.922Z,1.01
2019-01-21T08:23:30.242Z,1.00
2019-01-21T08:26:44.860Z,0.96
2019-01-21T08:30:05.754Z,0.91
2019-01-21T08:33:39.627Z,0.89
2019-01-21T08:36:46.817Z,0.86
2019-01-21T08:40:15.407Z,0.85
2019-01-21T08:43:28.299Z,0.84
2019-01-21T08:47:03.294Z,0.83
2019-01-21T08:50:44.016Z,0.82
2019-01-21T08:53:52.986Z,0.82
2019-01-21T08:57:30.974Z,0.82
2019-01-21T09:00:25.640Z,0.84
2019-01-21T09:03:36.597Z,0.86
2019-01-21T09:07:27.591Z,0.89
2019-01-21T09:10:52.389Z,0.92
2019-01-21T09:14:36.652Z,0.93
2019-01-21T09:17:56.593Z,0.94
2019-01-21T09:21:41.751Z,0.96
2019-01-21T09:25:25.211Z,0.96
2019-01-21T09:28:56.270Z,1.00
2019-01-21T09:32:23.127Z,1.02
2019-01-21T09:36:01.666Z,1.02
2019-01-21T09:39:18.856Z,1.05
2019-01-21T09:42:14.413Z,1.07
2019-01-21T09:45:19.995Z,1.11
2019-01-21T09:47:46.595Z,1.14
2019-01-21T09:50:15.475Z,1.16
2019-01-21T09:52:43.786Z,1.21
2019-01-21T09:55:15.010Z,1.26
2019-01-21T09:57:44.606Z,1.31
2019-01-21T10:00:17.419Z,1.36
2019-01-21T10:02:50.353Z,1.41
2019-01-21T10:05:20.072Z,1.47
2019-01-21T10:08:46.560Z,1.52
2019-01-21T10:12:14.789Z,1.59
2019-01-21T10:15:20.864Z,1.66
2019-01-21T10:18:50.705Z,1.70
2019-01-21T10:22:10.042Z,1.74
2019-01-21T10:25:54.705Z,1.78
2019-01-21T10:28:48.181Z,1.79
2019-01-21T10:32:11.595Z,1.77
2019-01-21T10:36:17.350Z,1.78
2019-01-21T10:39:57.726Z,1.81
2019-01-21T10:43:11.185Z,1.84
2019-01-21T10:46:39.266Z,1.87
2019-01-21T10:50:10.407Z,1.90
2019-01-21T10:53:45.209Z,1.91
2019-01-21T10:57:14.139Z,1.95
2019-01-21T11:00:26.140Z,1.96
2019-01-21T11:03:22.869Z,1.99
2019-01-21T11:07:11.719Z,2.01
2019-01-21T11:10:16.767Z,2.04
2019-01-21T11:13:40.955Z,2.10
2019-01-21T11:16:22.293Z,2.14
2019-01-21T11:19:41.514Z,2.19
2019-01-21T11:22:43.167Z,2.23
2019-01-21T11:25:57.505Z,2.25
2019-01-21T11:28:42.488Z,2.28
2019-01-21T11:32:03.167Z,2.29
2019-01-21T11:35:12.561Z,2.31
2019-01-21T11:38:39.084Z,2.33
2019-01-21T11:41:27.834Z,2.35
2019-01-21T11:44:39.743Z,2.32
2019-01-21T11:47:42.674Z,2.32
2019-01-21T11:51:27.056Z,2.32
2019-01-21T11:54:33.103Z,2.34
2019-01-21T11:57:56.077Z,2.37
2019-01-21T12:01:02.874Z,2.38
2019-01-21T12:04:16.804Z,2.39
2019-01-21T12:07:47.006Z,2.39
2019-01-21T12:10:58.308Z,2.39
2019-01-21T12:14:37.160Z,2.36
2019-01-21T12:17:52.641Z,2.35
2019-01-21T12:21:34.944Z,2.36
2019-01-21T12:24:29.545Z,2.35
2019-01-21T12:27:39.402Z,2.35
2019-01-21T12:30:37.339Z,2.36
2019-01-21T12:34:09.873Z,2.37
2019-01-21T12:37:22.006Z,2.40
2019-01-21T12:40:20.864Z,2.44
2019-01-21T12:44:08.162Z,2.48
2019-01-21T12:46:45.939Z,2.54
2019-01-21T12:50:12.540Z,2.56
2019-01-21T12:53:17.493Z,2.59
2019-01-21T12:56:42.101Z,2.62
2019-01-21T12:59:49.246Z,2.67
2019-01-21T13:02:31.907Z,2.72
2019-01-21T13:06:10.149Z,2.73
2019-01-21T13:08:59.894Z,2.78
2019-01-21T13:12:15.892Z,2.82
2019-01-21T13:15:26.204Z,2.87
2019-01-21T13:18:50.541Z,2.91
2019-01-21T13:22:53.313Z,2.92
2019-01-21T13:26:32.738Z,2.93
2019-01-21T13:30:20.737Z,2.93
2019-01-21T13:34:02.177Z,2.92
2019-01-21T13:37:15.679Z,2.95
2019-01-21T13:40:39.843Z,2.97
2019-01-21T13:43:59.239Z,3.02
2019-01-21T13:47:37.802Z,3.07
2019-01-21T13:50:17.576Z,3.09
2019-01-21T13:53:54.866Z,3.14
2019-01-21T13:57:29.125Z,3.18
2019-01-21T14:01:16.209Z,3.19
2019-01-21T14:04:27.270Z,3.21
2019-01-21T14:07:49.744Z,3.24
2019-01-21T14:11:03.386Z,3.27
2019-01-21T14:14:06.148Z,3.27
2019-01-21T14:17:34.469Z,3.29
2019-01-21T14:20:57.593Z,3.30
2019-01-21T14:23:38.639Z,3.28
2019-01-21T14:26:51.001Z,3.29
2019-01-21T14:29:59.645Z,3.31
2019-01-21T14:33:18.397Z,3.33
2019-01-21T14:36:40.735Z,3.35
2019-01-21T14:39:43.812Z,3.37
2019-01-21T14:43:23.754Z,3.39
2019-01-21T14:46:40.555Z,3.40
2019-01-21T14:49:54.722Z,3.39
2019-01-21T14:53:20.026Z,3.38
2019-01-21T14:56:28.785Z,3.35
2019-01-21T15:00:10.640Z,3.36
2019-01-21T15:03:57.963Z,3.35
2019-01-21T15:07:16.764Z,3.33
2019-01-21T15:10:43.707Z,3.29
2019-01-21T15:14:02.828Z,3.27
2019-01-21T15:17:02.933Z,3.25
2019-01-21T15:19:50.527Z,3.22
2019-01-21T15:23:09.590Z,3.20
2019-01-21T15:26:18.709Z,3.17
2019-01-21T15:29:35.176Z,3.18
2019-01-21T15:33:03.084Z,3.19
2019-01-21T15:36:40.117Z,3.17
2019-01-21T15:39:37.273Z,3.10
2019-01-21T15:42:46.294Z,3.06
2019-01-21T15:46:23.689Z,3.03
2019-01-21T15:49:35.631Z,2.99
2019-01-21T15:52:39.547Z,2.99
2019-01-21T15:56:00.713Z,3.01
2019-01-21T15:59:25.566Z,3.03
2019-01-21T16:02:27.853Z,3.06
2019-01-21T16:06:15.459Z,3.09
2019-01-21T16:09:30.667Z,3.10
2019-01-21T16:12:45.866Z,3.08
2019-01-21T16:15:53.026Z,3.06
2019-01-21T16:18:48.893Z,3.03
2019-01-21T16:22:30.295Z,2.97
2019-01-21T16:25:46.084Z,2.94
2019-01-21T16:29:20.046Z,2.94
2019-01-21T16:32:15.144Z,2.91
2019-01-21T16:35:35.484Z,2.78
2019-01-21T16:38:33.679Z,2.68
2019-01-21T16:41:51.276Z,2.59
2019-01-21T16:44:19.450Z,2.55
2019-01-21T16:46:47.654Z,2.56
2019-01-21T16:49:16.355Z,2.58
2019-01-21T16:51:44.830Z,2.59
2019-01-21T16:54:14.398Z,2.63
2019-01-21T16:56:42.847Z,2.62
2019-01-21T16:59:11.248Z,2.59
2019-01-21T17:01:39.185Z,2.55
2019-01-21T17:04:07.286Z,2.52
2019-01-21T17:06:35.448Z,2.50
2019-01-21T17:09:09.358Z,2.51
2019-01-21T17:11:40.561Z,2.53
2019-01-21T17:14:10.911Z,2.53
2019-01-21T17:16:40.820Z,2.54
2019-01-21T17:19:35.809Z,2.54
2019-01-21T17:22:04.241Z,2.55
2019-01-21T17:24:32.355Z,2.54
2019-01-21T17:27:00.377Z,2.53
2019-01-21T17:29:28.814Z,2.52
2019-01-21T17:31:56.871Z,2.50
2019-01-21T17:34:26.506Z,2.48
2019-01-21T17:36:54.662Z,2.48
2019-01-21T17:39:24.327Z,2.44
2019-01-21T17:41:52.635Z,2.41
2019-01-21T17:44:20.689Z,2.39
2019-01-21T17:46:48.957Z,2.37
2019-01-21T17:49:17.008Z,2.35
2019-01-21T17:51:45.000Z,2.31
2019-01-21T17:54:13.334Z,2.27
2019-01-21T17:56:42.622Z,2.23
2019-01-21T17:59:10.705Z,2.21
2019-01-21T18:01:41.261Z,2.17
2019-01-21T18:04:10.578Z,2.14
2019-01-21T18:06:38.726Z,2.13
2019-01-21T18:09:09.031Z,2.11
2019-01-21T18:11:41.384Z,2.08
2019-01-21T18:14:08.113Z,2.06
2019-01-21T18:16:37.278Z,2.03
2019-01-21T18:19:05.353Z,2.00
2019-01-21T18:21:40.151Z,1.97
2019-01-21T18:24:04.776Z,1.94
2019-01-21T18:26:32.861Z,1.90
2019-01-21T18:29:00.971Z,1.86
2019-01-21T18:31:29.043Z,1.83
2019-01-21T18:33:57.317Z,1.79
2019-01-21T18:36:25.320Z,1.76
2019-01-21T18:38:53.390Z,1.74
2019-01-21T18:41:21.429Z,1.70
2019-01-21T18:43:51.741Z,1.67
2019-01-21T18:46:20.056Z,1.63
2019-01-21T18:48:49.388Z,1.61
2019-01-21T18:51:17.851Z,1.58
2019-01-21T18:53:45.929Z,1.56
2019-01-21T18:56:14.128Z,1.55
2019-01-21T18:58:42.150Z,1.51
2019-01-21T19:01:10.782Z,1.50
2019-01-21T19:03:38.950Z,1.48
2019-01-21T19:06:07.015Z,1.46
2019-01-21T19:08:35.222Z,1.45
2019-01-21T19:11:03.258Z,1.42
2019-01-21T19:13:31.491Z,1.40
2019-01-21T19:15:59.591Z,1.35
2019-01-21T19:18:27.849Z,1.32
2019-01-21T19:20:56.025Z,1.29
2019-01-21T19:23:25.427Z,1.28
2019-01-21T19:25:54.676Z,1.27
2019-01-21T19:28:22.785Z,1.25
2019-01-21T19:30:50.894Z,1.25
2019-01-21T19:33:19.279Z,1.24
2019-01-21T19:35:48.578Z,1.23
2019-01-21T19:38:16.570Z,1.22
2019-01-21T19:40:44.683Z,1.20
2019-01-21T19:43:12.857Z,1.15
2019-01-21T19:45:43.275Z,1.12
2019-01-21T19:48:11.621Z,1.08
2019-01-21T19:50:39.659Z,1.05
2019-01-21T19:53:07.646Z,1.04
2019-01-21T19:55:41.869Z,1.01
2019-01-21T19:58:11.513Z,1.00
2019-01-21T20:00:41.085Z,0.98
2019-01-21T20:03:09.621Z,0.92
2019-01-21T20:05:38.059Z,0.85
2019-01-21T20:08:07.764Z,0.80
2019-01-21T20:10:37.414Z,0.73
2019-01-21T20:13:05.479Z,0.67
2019-01-21T20:15:33.699Z,0.58
2019-01-21T20:18:01.939Z,0.50
2019-01-21T20:20:34.166Z,0.46
2019-01-21T20:23:02.787Z,0.42
2019-01-21T20:25:30.853Z,0.34
2019-01-21T20:27:58.984Z,0.24
2019-01-21T20:30:27.051Z,0.17
2019-01-21T20:32:55.132Z,0.12
2019-01-21T20:35:24.536Z,0.09
2019-01-21T20:37:53.850Z,0.07
2019-01-21T20:40:24.788Z,0.03
2019-01-21T20:42:53.077Z,-0.01
2019-01-21T20:45:21.519Z,-0.02
2019-01-21T20:47:50.030Z,-0.05
2019-01-21T20:50:24.864Z,-0.08
2019-01-21T20:52:54.089Z,-0.09
2019-01-21T20:55:22.345Z,-0.12
2019-01-21T20:57:51.775Z,-0.17
2019-01-21T21:00:22.836Z,-0.19
2019-01-21T21:02:51.821Z,-0.23
2019-01-21T21:05:19.819Z,-0.28
2019-01-21T21:07:49.461Z,-0.29
2019-01-21T21:10:17.956Z,-0.30
2019-01-21T21:12:46.146Z,-0.30
2019-01-21T21:15:18.367Z,-0.30
2019-01-21T21:17:46.533Z,-0.30
2019-01-21T21:20:15.256Z,-0.31
2019-01-21T21:22:43.533Z,-0.33
2019-01-21T21:25:13.819Z,-0.34
2019-01-21T21:27:41.842Z,-0.36
2019-01-21T21:30:16.343Z,-0.38
2019-01-21T21:32:44.417Z,-0.40
2019-01-21T21:35:14.730Z,-0.41
2019-01-21T21:37:42.869Z,-0.43
2019-01-21T21:40:14.282Z,-0.43
2019-01-21T21:42:44.662Z,-0.42
2019-01-21T21:45:14.737Z,-0.41
2019-01-21T21:47:44.366Z,-0.41
2019-01-21T21:50:16.564Z,-0.41
2019-01-21T21:52:44.901Z,-0.40
2019-01-21T21:55:13.225Z,-0.40
2019-01-21T21:57:41.302Z,-0.39
2019-01-21T22:00:15.094Z,-0.38
2019-01-21T22:02:44.962Z,-0.41
2019-01-21T22:05:13.458Z,-0.45
2019-01-21T22:07:42.601Z,-0.45
2019-01-21T22:10:13.626Z,-0.42
2019-01-21T22:12:42.007Z,-0.40
2019-01-21T22:15:13.383Z,-0.39
2019-01-21T22:17:41.741Z,-0.37
2019-01-21T22:20:14.033Z,-0.36
2019-01-21T22:22:42.121Z,-0.38
2019-01-21T22:25:10.164Z,-0.39
2019-01-21T22:27:38.182Z,-0.38
2019-01-21T22:30:10.274Z,-0.36
2019-01-21T22:32:38.367Z,-0.34
2019-01-21T22:35:06.405Z,-0.30
2019-01-21T22:37:34.413Z,-0.25
2019-01-21T22:40:03.887Z,-0.21
2019-01-21T22:42:32.304Z,-0.17
2019-01-21T22:45:00.325Z,-0.12
2019-01-21T22:47:28.554Z,-0.08
2019-01-21T22:49:56.459Z,-0.03
2019-01-21T22:52:24.722Z,0.02
2019-01-21T22:54:52.705Z,0.06
2019-01-21T22:57:20.736Z,0.08
2019-01-21T22:59:49.111Z,0.11
2019-01-21T23:02:17.169Z,0.14
2019-01-21T23:04:45.141Z,0.18
2019-01-21T23:07:13.456Z,0.21
2019-01-21T23:09:41.448Z,0.24
2019-01-21T23:12:09.495Z,0.26
2019-01-21T23:14:38.143Z,0.26
2019-01-21T23:17:06.580Z,0.28
2019-01-21T23:19:34.573Z,0.30
2019-01-21T23:22:02.882Z,0.29
2019-01-21T23:24:30.909Z,0.22
2019-01-21T23:26:58.944Z,0.20
2019-01-21T23:29:27.806Z,0.20
2019-01-21T23:31:55.886Z,0.15
2019-01-21T23:34:23.934Z,0.12
2019-01-21T23:36:52.355Z,0.12
2019-01-21T23:39:21.586Z,0.10
2019-01-21T23:41:49.627Z,0.09
2019-01-21T23:44:17.681Z,0.03
2019-01-21T23:46:46.033Z,-0.04
2019-01-21T23:49:15.087Z,-0.08
2019-01-21T23:51:43.476Z,-0.10
2019-01-21T23:54:11.490Z,-0.15
2019-01-21T23:56:39.477Z,-0.20
2019-01-21T23:59:09.572Z,-0.25
